Time;durP1;ratioP1;P1;durP2;ratioP2;P2;SDS_P1;SDS_P2;PMS_P1;PMS_P2;Temp;Humidity;BMP_temperature;BMP_pressure;BME280_temperature;BME280_humidity;BME280_pressure;Samples;Min_cycle;Max_cycle;Signal;HPM_P1;HPM_P2
2023/08/23 00:00:10;;;;;;;1.38;1.25;;;22.70;61.80;;;;;;4900377;29;20033;-75
2023/08/23 00:02:39;;;;;;;1.40;1.10;;;22.70;61.90;;;;;;4914998;29;20048;-75
2023/08/23 00:05:05;;;;;;;2.10;1.50;;;22.60;61.80;;;;;;4899237;29;20036;-75
2023/08/23 00:07:31;;;;;;;1.40;1.30;;;22.60;61.90;;;;;;4914850;29;20029;-76
2023/08/23 00:09:57;;;;;;;1.30;1.20;;;22.60;61.90;;;;;;4899528;29;20438;-76
2023/08/23 00:12:22;;;;;;;2.00;1.40;;;22.50;61.90;;;;;;4899504;29;20043;-75
2023/08/23 00:14:48;;;;;;;1.98;1.40;;;22.50;62.00;;;;;;4898968;29;20036;-76
2023/08/23 00:17:14;;;;;;;1.92;1.25;;;22.50;62.00;;;;;;4898867;29;20055;-75
2023/08/23 00:19:39;;;;;;;1.95;1.38;;;22.50;62.10;;;;;;4884065;29;20032;-74
2023/08/23 00:22:05;;;;;;;2.20;1.50;;;22.40;62.10;;;;;;4899543;29;20486;-75
2023/08/23 00:24:31;;;;;;;1.38;1.20;;;22.40;62.10;;;;;;4900154;29;20116;-77
2023/08/23 00:26:57;;;;;;;1.98;1.30;;;22.30;62.10;;;;;;4899744;29;20116;-76
2023/08/23 00:29:23;;;;;;;1.88;1.40;;;22.30;62.10;;;;;;4898747;29;20111;-75
2023/08/23 00:31:49;;;;;;;1.63;1.40;;;22.30;62.20;;;;;;4898647;29;20488;-75
2023/08/23 00:34:15;;;;;;;1.95;1.38;;;22.30;62.20;;;;;;4882991;29;20523;-76
2023/08/23 00:36:40;;;;;;;1.85;1.30;;;22.20;62.20;;;;;;4898398;29;20132;-75
2023/08/23 00:39:06;;;;;;;2.30;1.45;;;22.20;62.30;;;;;;4898734;29;20041;-75
2023/08/23 00:41:32;;;;;;;1.58;1.35;;;22.20;62.30;;;;;;4900190;29;20088;-75
2023/08/23 00:43:57;;;;;;;1.33;1.20;;;22.10;62.30;;;;;;4898498;29;20032;-76
2023/08/23 00:46:24;;;;;;;1.50;1.25;;;22.10;62.30;;;;;;4897227;29;20036;-75
2023/08/23 00:48:50;;;;;;;2.58;1.20;;;22.10;62.40;;;;;;4898981;29;20040;-74
2023/08/23 00:51:17;;;;;;;1.73;1.25;;;22.10;62.40;;;;;;4913966;29;20032;-75
2023/08/23 00:53:43;;;;;;;1.83;1.40;;;22.00;62.40;;;;;;4882469;29;20127;-80
2023/08/23 00:56:11;;;;;;;1.33;1.23;;;22.00;62.40;;;;;;4898785;29;20033;-74
2023/08/23 00:58:37;;;;;;;1.90;1.40;;;22.00;62.50;;;;;;4898092;29;20084;-75
2023/08/23 01:01:03;;;;;;;1.63;1.13;;;21.90;62.50;;;;;;4898286;29;20040;-75
2023/08/23 01:03:29;;;;;;;2.08;1.30;;;21.90;62.60;;;;;;4897505;29;20064;-76
2023/08/23 01:06:16;;;;;;;2.78;1.27;;;21.90;62.60;;;;;;4898186;29;20060;-74
2023/08/23 01:08:48;;;;;;;1.67;1.38;;;21.90;62.70;;;;;;4898007;29;20049;-76
2023/08/23 01:11:20;;;;;;;1.33;1.15;;;21.80;62.60;;;;;;4898086;29;20537;-76
2023/08/23 01:13:58;;;;;;;1.90;1.30;;;21.80;62.70;;;;;;4897544;29;20053;-74
2023/08/23 01:16:25;;;;;;;2.42;1.60;;;21.80;62.80;;;;;;4897685;29;20040;-75
2023/08/23 01:18:52;;;;;;;2.15;1.30;;;21.70;62.70;;;;;;4882135;29;20047;-76
2023/08/23 01:21:27;;;;;;;2.00;1.42;;;21.70;62.80;;;;;;4897611;29;20040;-75
2023/08/23 01:23:53;;;;;;;1.17;1.08;;;21.70;62.80;;;;;;4897801;29;20493;-75
2023/08/23 01:26:19;;;;;;;2.20;1.55;;;21.70;62.90;;;;;;4881885;29;20483;-77
2023/08/23 01:28:47;;;;;;;2.05;1.30;;;21.60;62.80;;;;;;4882624;29;20048;-76
2023/08/23 01:31:14;;;;;;;1.75;1.27;;;21.60;62.90;;;;;;4897593;29;20032;-75
2023/08/23 01:33:46;;;;;;;1.67;1.15;;;21.60;62.90;;;;;;4882877;29;20083;-77
2023/08/23 01:36:21;;;;;;;1.23;1.13;;;21.60;62.90;;;;;;4897857;29;20382;-75
2023/08/23 01:38:48;;;;;;;2.10;1.45;;;21.50;63.00;;;;;;4899183;29;20075;-76
2023/08/23 01:41:15;;;;;;;1.83;1.45;;;21.50;63.10;;;;;;4882200;29;20059;-76
2023/08/23 01:43:42;;;;;;;2.33;1.40;;;21.40;63.10;;;;;;4882078;29;20072;-74
2023/08/23 01:46:07;;;;;;;2.10;1.20;;;21.40;63.10;;;;;;4882404;29;20036;-74
2023/08/23 01:48:34;;;;;;;1.45;1.13;;;21.40;63.10;;;;;;4881852;29;20032;-74
2023/08/23 01:50:59;;;;;;;3.13;1.58;;;21.40;63.10;;;;;;4912730;29;20080;-75
2023/08/23 01:53:25;;;;;;;1.40;1.25;;;21.40;63.10;;;;;;4882447;29;20039;-75
2023/08/23 01:55:51;;;;;;;2.25;1.42;;;21.30;63.10;;;;;;4898092;29;20047;-76
2023/08/23 01:58:17;;;;;;;1.85;1.35;;;21.30;63.10;;;;;;4897078;29;20044;-76
2023/08/23 02:00:47;;;;;;;1.80;1.25;;;21.30;63.10;;;;;;4897230;29;20492;-76
2023/08/23 02:03:13;;;;;;;1.40;1.27;;;21.30;63.20;;;;;;4881196;29;20052;-76
2023/08/23 02:05:39;;;;;;;1.92;1.27;;;21.30;63.20;;;;;;4897049;29;20040;-77
2023/08/23 02:08:05;;;;;;;1.33;1.23;;;21.30;63.40;;;;;;4897798;29;20088;-75
2023/08/23 02:10:33;;;;;;;2.10;1.45;;;21.20;63.30;;;;;;4897769;29;20047;-74
2023/08/23 02:12:59;;;;;;;1.67;1.40;;;21.20;63.30;;;;;;4881478;29;20461;-75
2023/08/23 02:15:25;;;;;;;1.50;1.33;;;21.20;63.40;;;;;;4897303;29;20085;-75
2023/08/23 02:17:52;;;;;;;1.55;1.42;;;21.20;63.40;;;;;;4898724;29;20048;-75
2023/08/23 02:20:18;;;;;;;2.67;1.42;;;21.20;63.50;;;;;;4912566;29;20490;-74
2023/08/23 02:22:44;;;;;;;1.60;1.20;;;21.10;63.40;;;;;;4881430;29;20043;-75
2023/08/23 02:25:09;;;;;;;1.70;1.35;;;21.10;63.40;;;;;;4912941;29;20100;-75
2023/08/23 02:27:35;;;;;;;2.08;1.48;;;21.10;63.50;;;;;;4897146;29;20036;-75
2023/08/23 02:30:01;;;;;;;1.40;1.30;;;21.10;63.50;;;;;;4912827;29;20148;-74
2023/08/23 02:32:27;;;;;;;1.17;1.10;;;21.10;63.60;;;;;;4896810;29;20032;-75
2023/08/23 02:34:52;;;;;;;1.67;1.50;;;21.00;63.50;;;;;;4896949;29;20037;-75
2023/08/23 02:37:18;;;;;;;1.88;1.38;;;21.00;63.60;;;;;;4880984;29;20494;-74
2023/08/23 02:39:44;;;;;;;2.00;1.50;;;21.00;63.60;;;;;;4881293;29;20040;-76
2023/08/23 02:42:09;;;;;;;2.42;1.42;;;21.00;63.60;;;;;;4881570;29;20036;-77
2023/08/23 02:44:35;;;;;;;1.67;1.50;;;20.90;63.60;;;;;;4896440;29;20092;-75
2023/08/23 02:47:01;;;;;;;1.88;1.30;;;20.90;63.70;;;;;;4912589;29;20123;-74
2023/08/23 02:49:27;;;;;;;1.67;1.50;;;20.90;63.80;;;;;;4896775;29;20080;-76
2023/08/23 02:51:52;;;;;;;1.73;1.42;;;20.90;63.80;;;;;;4881437;29;20551;-76
2023/08/23 02:54:18;;;;;;;1.67;1.30;;;20.90;63.80;;;;;;4881304;29;20116;-74
2023/08/23 02:56:44;;;;;;;1.83;1.45;;;20.90;63.80;;;;;;4896793;29;20044;-77
2023/08/23 02:59:09;;;;;;;2.17;1.48;;;20.80;63.80;;;;;;4881099;29;20044;-77
2023/08/23 03:01:35;;;;;;;1.75;1.30;;;20.80;63.80;;;;;;4897946;29;20065;-74
2023/08/23 03:04:01;;;;;;;1.58;1.35;;;20.80;63.90;;;;;;4898588;29;20040;-75
2023/08/23 03:06:27;;;;;;;2.53;1.45;;;20.80;63.90;;;;;;4912623;29;20477;-74
2023/08/23 03:08:52;;;;;;;1.65;1.30;;;20.70;63.90;;;;;;4897643;29;20043;-74
2023/08/23 03:11:18;;;;;;;1.65;1.55;;;20.70;63.90;;;;;;4900736;29;20032;-75
2023/08/23 03:13:44;;;;;;;2.10;1.60;;;20.70;64.00;;;;;;4900267;29;20040;-75
2023/08/23 03:16:10;;;;;;;2.05;1.65;;;20.70;64.00;;;;;;4900126;29;20039;-75
2023/08/23 03:18:36;;;;;;;1.67;1.35;;;20.70;64.10;;;;;;4915503;29;20040;-76
2023/08/23 03:21:01;;;;;;;1.50;1.38;;;20.70;64.10;;;;;;4900142;29;20478;-75
2023/08/23 03:23:27;;;;;;;1.75;1.40;;;20.60;64.00;;;;;;4899973;29;20510;-75
2023/08/23 03:25:54;;;;;;;1.75;1.42;;;20.60;64.30;;;;;;4900051;29;20045;-78
2023/08/23 03:28:21;;;;;;;1.33;1.23;;;20.60;64.10;;;;;;4900489;29;20561;-74
2023/08/23 03:30:47;;;;;;;2.38;1.73;;;20.60;64.10;;;;;;4899755;29;20198;-77
2023/08/23 03:33:13;;;;;;;2.45;1.50;;;20.60;64.20;;;;;;4884260;29;20123;-77
2023/08/23 03:35:40;;;;;;;2.22;1.60;;;20.60;64.20;;;;;;4899929;29;20028;-74
2023/08/23 03:38:05;;;;;;;1.58;1.33;;;20.50;64.20;;;;;;4899449;29;20370;-77
2023/08/23 03:40:37;;;;;;;1.92;1.50;;;20.50;64.20;;;;;;4900248;29;20040;-77
2023/08/23 03:43:04;;;;;;;1.42;1.30;;;20.50;64.30;;;;;;4899812;29;20028;-76
2023/08/23 03:45:30;;;;;;;2.60;1.33;;;20.50;64.30;;;;;;4899682;29;20032;-77
2023/08/23 03:47:56;;;;;;;1.98;1.33;;;20.40;64.30;;;;;;4899919;29;20036;-77
2023/08/23 03:50:22;;;;;;;1.75;1.33;;;20.40;64.30;;;;;;4915261;29;20059;-76
2023/08/23 03:52:47;;;;;;;2.58;1.80;;;20.40;64.30;;;;;;4901380;29;20036;-77
2023/08/23 03:55:13;;;;;;;2.47;1.55;;;20.40;64.30;;;;;;4900405;29;20079;-76
2023/08/23 03:57:39;;;;;;;2.13;1.35;;;20.40;64.30;;;;;;4899728;29;20500;-77
2023/08/23 04:00:07;;;;;;;1.60;1.30;;;20.40;64.40;;;;;;4884456;29;20044;-76
2023/08/23 04:02:42;;;;;;;2.40;1.55;;;20.40;64.40;;;;;;4900678;29;20498;-77
2023/08/23 04:05:11;;;;;;;1.90;1.38;;;20.30;64.40;;;;;;4899423;29;20112;-77
2023/08/23 04:07:38;;;;;;;1.58;1.30;;;20.30;64.40;;;;;;4899955;29;20037;-77
2023/08/23 04:10:05;;;;;;;1.50;1.40;;;20.30;64.50;;;;;;4899725;29;20033;-77
2023/08/23 04:12:31;;;;;;;1.50;1.40;;;20.30;64.50;;;;;;4899739;29;20035;-77
2023/08/23 04:14:57;;;;;;;1.80;1.52;;;20.30;64.50;;;;;;4899886;29;20124;-77
2023/08/23 04:17:23;;;;;;;1.83;1.50;;;20.30;64.50;;;;;;4899473;29;20044;-77
2023/08/23 04:19:50;;;;;;;1.73;1.60;;;20.30;64.60;;;;;;4898939;29;20041;-78
2023/08/23 04:22:16;;;;;;;2.78;1.70;;;20.30;64.60;;;;;;4898975;29;20036;-76
2023/08/23 04:24:42;;;;;;;2.10;1.50;;;20.20;64.60;;;;;;4914786;29;20029;-77
2023/08/23 04:27:08;;;;;;;1.73;1.58;;;20.20;64.60;;;;;;4914509;29;20041;-77
2023/08/23 04:29:34;;;;;;;2.25;1.75;;;20.20;64.60;;;;;;4883905;29;20084;-77
2023/08/23 04:31:59;;;;;;;2.70;1.80;;;20.20;64.60;;;;;;4898691;29;20036;-77
2023/08/23 04:34:29;;;;;;;2.70;1.90;;;20.20;64.70;;;;;;4898662;29;20028;-77
2023/08/23 04:36:55;;;;;;;2.13;1.60;;;20.10;64.60;;;;;;4898685;29;20040;-78
2023/08/23 04:39:21;;;;;;;2.33;1.80;;;20.10;64.70;;;;;;4882992;29;20045;-77
2023/08/23 04:41:47;;;;;;;2.88;1.90;;;20.10;64.70;;;;;;4898500;29;20478;-76
2023/08/23 04:44:13;;;;;;;2.20;1.60;;;20.10;64.80;;;;;;4898378;29;20067;-77
2023/08/23 04:46:39;;;;;;;2.47;1.85;;;20.10;64.80;;;;;;4882998;29;20434;-77
2023/08/23 04:49:05;;;;;;;1.80;1.67;;;20.10;64.80;;;;;;4898347;29;20032;-77
2023/08/23 04:51:30;;;;;;;2.10;1.60;;;20.10;64.80;;;;;;4882929;29;20490;-79
2023/08/23 04:53:57;;;;;;;2.20;1.60;;;20.10;64.90;;;;;;4898562;29;20032;-77
2023/08/23 04:56:23;;;;;;;2.38;1.60;;;20.00;64.80;;;;;;4899231;29;20037;-77
2023/08/23 04:58:49;;;;;;;1.95;1.60;;;20.00;64.90;;;;;;4883051;29;20036;-77
2023/08/23 05:01:16;;;;;;;2.28;1.63;;;20.00;64.80;;;;;;4882905;29;20044;-77
2023/08/23 05:03:43;;;;;;;2.13;1.60;;;20.00;64.90;;;;;;4898240;29;20482;-78
2023/08/23 05:06:09;;;;;;;2.65;1.70;;;20.00;64.90;;;;;;4898188;29;20041;-78
2023/08/23 05:08:35;;;;;;;1.55;1.40;;;20.00;65.00;;;;;;4898350;29;20050;-78
2023/08/23 05:11:11;;;;;;;1.90;1.70;;;19.90;64.90;;;;;;4898893;29;20068;-79
2023/08/23 05:13:37;;;;;;;2.13;1.60;;;19.90;65.00;;;;;;4882602;29;20035;-78
2023/08/23 05:16:03;;;;;;;2.30;1.65;;;19.90;65.00;;;;;;4898296;29;20041;-78
2023/08/23 05:18:28;;;;;;;1.75;1.65;;;19.90;65.00;;;;;;4898154;29;20548;-77
2023/08/23 05:20:57;;;;;;;3.10;1.95;;;19.90;65.10;;;;;;4882429;29;20048;-78
2023/08/23 05:23:23;;;;;;;2.75;1.80;;;19.90;65.10;;;;;;4897577;29;20064;-78
2023/08/23 05:25:51;;;;;;;2.33;1.70;;;19.90;65.10;;;;;;4898200;29;20131;-78
2023/08/23 05:28:21;;;;;;;2.20;1.90;;;19.90;65.20;;;;;;4913319;29;20478;-77
2023/08/23 05:30:47;;;;;;;2.65;1.70;;;19.80;65.20;;;;;;4897597;29;20040;-78
2023/08/23 05:33:16;;;;;;;2.22;1.67;;;19.90;65.20;;;;;;4897011;29;20084;-79
2023/08/23 05:35:45;;;;;;;2.03;1.70;;;19.90;65.20;;;;;;4898165;29;20036;-77
2023/08/23 05:38:12;;;;;;;3.03;1.70;;;19.80;65.30;;;;;;4882177;29;20044;-78
2023/08/23 05:40:39;;;;;;;2.15;1.60;;;19.90;65.30;;;;;;4897845;29;20095;-78
2023/08/23 05:43:06;;;;;;;2.45;1.60;;;19.90;65.30;;;;;;4897620;29;20044;-78
2023/08/23 05:45:32;;;;;;;2.45;1.67;;;19.80;65.30;;;;;;4881728;29;20068;-77
2023/08/23 05:47:59;;;;;;;1.75;1.60;;;19.80;65.30;;;;;;4898399;29;20067;-77
2023/08/23 05:50:25;;;;;;;2.17;1.60;;;19.80;65.40;;;;;;4882092;29;20045;-77
2023/08/23 05:52:50;;;;;;;1.65;1.55;;;19.80;65.40;;;;;;4897476;29;20068;-77
2023/08/23 05:55:16;;;;;;;1.98;1.60;;;19.80;65.40;;;;;;4897223;29;20586;-78
2023/08/23 05:57:42;;;;;;;2.38;1.52;;;19.80;65.40;;;;;;4897345;29;20032;-77
2023/08/23 06:00:09;;;;;;;2.75;1.70;;;19.80;65.40;;;;;;4897437;29;20063;-76
2023/08/23 06:02:38;;;;;;;2.90;1.88;;;19.80;65.50;;;;;;4882201;29;20422;-77
2023/08/23 06:05:05;;;;;;;2.42;1.90;;;19.80;65.50;;;;;;4897279;29;20033;-77
2023/08/23 06:07:32;;;;;;;2.05;1.70;;;19.80;65.50;;;;;;4898241;29;20545;-77
2023/08/23 06:09:57;;;;;;;2.53;1.70;;;19.80;65.50;;;;;;4897847;29;20033;-78
2023/08/23 06:12:25;;;;;;;1.98;1.60;;;19.80;65.50;;;;;;4913403;29;20037;-77
2023/08/23 06:14:50;;;;;;;1.60;1.50;;;19.80;65.50;;;;;;4897370;29;20036;-76
2023/08/23 06:17:17;;;;;;;1.77;1.63;;;19.80;65.50;;;;;;4897040;29;20513;-76
2023/08/23 06:19:42;;;;;;;2.88;1.73;;;19.80;65.50;;;;;;4897873;29;20473;-76
2023/08/23 06:22:09;;;;;;;1.77;1.58;;;19.80;65.60;;;;;;4897864;29;20076;-76
2023/08/23 06:24:34;;;;;;;2.72;2.00;;;19.80;65.60;;;;;;4881593;29;20040;-76
2023/08/23 06:27:01;;;;;;;2.03;1.77;;;19.80;65.60;;;;;;4881767;29;20410;-76
2023/08/23 06:29:27;;;;;;;2.50;1.80;;;19.80;65.60;;;;;;4898085;29;20039;-76
2023/08/23 06:31:53;;;;;;;3.13;1.83;;;19.80;65.60;;;;;;4897691;29;20104;-76
2023/08/23 06:34:18;;;;;;;2.63;2.03;;;19.80;65.70;;;;;;4898607;29;20454;-76
2023/08/23 06:36:44;;;;;;;2.17;1.90;;;19.80;65.60;;;;;;4898932;29;20036;-76
2023/08/23 06:39:10;;;;;;;2.00;1.60;;;19.80;65.60;;;;;;4881508;29;20152;-76
2023/08/23 06:41:37;;;;;;;1.70;1.60;;;19.80;65.60;;;;;;4897156;29;20119;-77
2023/08/23 06:44:03;;;;;;;1.98;1.77;;;19.80;65.60;;;;;;4898126;29;20036;-77
2023/08/23 06:46:29;;;;;;;2.33;1.70;;;19.80;65.60;;;;;;4902003;29;20033;-76
2023/08/23 06:48:55;;;;;;;2.17;1.48;;;19.80;65.60;;;;;;4916237;29;20136;-78
2023/08/23 06:51:22;;;;;;;2.03;1.60;;;19.80;65.60;;;;;;4900386;29;20035;-76
2023/08/23 06:53:51;;;;;;;1.90;1.60;;;19.80;65.60;;;;;;4901008;29;20537;-76
2023/08/23 06:56:16;;;;;;;1.90;1.65;;;19.90;65.70;;;;;;4901590;29;20107;-75
2023/08/23 06:58:42;;;;;;;1.75;1.50;;;19.90;65.60;;;;;;4900723;29;20131;-75
2023/08/23 07:01:17;;;;;;;2.70;1.52;;;19.90;65.70;;;;;;4900861;29;20033;-76
2023/08/23 07:03:43;;;;;;;2.33;1.48;;;19.90;65.70;;;;;;4885778;29;20499;-76
2023/08/23 07:06:13;;;;;;;2.00;1.70;;;19.90;65.70;;;;;;4915959;29;20067;-75
2023/08/23 07:08:41;;;;;;;1.80;1.38;;;19.90;65.70;;;;;;4901355;29;20071;-76
2023/08/23 07:11:08;;;;;;;2.20;1.50;;;19.90;65.70;;;;;;4901260;29;20088;-74
2023/08/23 07:13:36;;;;;;;2.50;1.80;;;19.90;65.70;;;;;;4901579;29;20080;-76
2023/08/23 07:16:02;;;;;;;2.40;1.55;;;19.90;65.70;;;;;;4901586;29;20052;-76
2023/08/23 07:18:29;;;;;;;1.60;1.50;;;20.00;65.80;;;;;;4900903;29;20084;-76
2023/08/23 07:20:55;;;;;;;2.45;1.83;;;20.00;65.80;;;;;;4899994;29;20153;-76
2023/08/23 07:23:21;;;;;;;2.92;1.90;;;20.00;65.80;;;;;;4901647;29;20044;-76
2023/08/23 07:25:46;;;;;;;2.20;1.65;;;20.00;65.80;;;;;;4916126;29;20040;-76
2023/08/23 07:28:12;;;;;;;2.20;1.70;;;20.00;65.80;;;;;;4900125;29;20041;-76
2023/08/23 07:30:38;;;;;;;2.03;1.58;;;20.00;65.80;;;;;;4885452;29;20036;-77
2023/08/23 07:33:04;;;;;;;1.50;1.40;;;20.10;65.90;;;;;;4900381;29;20120;-76
2023/08/23 07:35:30;;;;;;;2.60;1.85;;;20.00;65.80;;;;;;4902100;29;20055;-76
2023/08/23 07:37:56;;;;;;;2.63;2.00;;;20.10;65.90;;;;;;4900922;29;20513;-77
2023/08/23 07:40:22;;;;;;;2.45;1.70;;;20.10;65.90;;;;;;4884167;29;20120;-76
2023/08/23 07:42:47;;;;;;;2.35;1.85;;;20.10;65.90;;;;;;4900191;29;20386;-76
2023/08/23 07:45:13;;;;;;;3.05;1.80;;;20.10;65.90;;;;;;4900518;29;20044;-76
2023/08/23 07:47:39;;;;;;;1.77;1.67;;;20.20;65.90;;;;;;4899796;29;20103;-76
2023/08/23 07:50:06;;;;;;;2.00;1.80;;;20.20;65.90;;;;;;4884399;29;20056;-77
2023/08/23 07:52:31;;;;;;;2.25;1.77;;;20.20;66.00;;;;;;4884789;29;20055;-76
2023/08/23 07:54:57;;;;;;;2.25;1.77;;;20.20;66.00;;;;;;4899003;29;20379;-76
2023/08/23 07:57:23;;;;;;;2.00;1.60;;;20.20;66.00;;;;;;4883972;29;20041;-76
2023/08/23 07:59:49;;;;;;;2.42;1.98;;;20.20;66.00;;;;;;4900463;29;20045;-76
2023/08/23 08:02:15;;;;;;;2.97;2.20;;;20.30;66.10;;;;;;4883391;29;20088;-76
2023/08/23 08:04:43;;;;;;;2.72;1.92;;;20.30;66.10;;;;;;4899078;29;20082;-76
2023/08/23 08:07:08;;;;;;;2.38;1.77;;;20.30;66.10;;;;;;4899364;29;20037;-76
2023/08/23 08:09:34;;;;;;;2.70;2.03;;;20.30;66.10;;;;;;4900119;29;20386;-75
2023/08/23 08:12:00;;;;;;;2.65;1.95;;;20.30;66.10;;;;;;4883603;29;20024;-76
2023/08/23 08:14:26;;;;;;;2.40;1.70;;;20.30;66.00;;;;;;4899484;29;20047;-77
2023/08/23 08:16:52;;;;;;;2.35;1.80;;;20.40;66.00;;;;;;4900807;29;20454;-76
2023/08/23 08:19:18;;;;;;;2.38;1.67;;;20.40;66.00;;;;;;4883876;29;20127;-77
2023/08/23 08:21:44;;;;;;;2.30;1.73;;;20.40;65.90;;;;;;4915283;29;20045;-76
2023/08/23 08:24:09;;;;;;;2.85;2.10;;;20.50;65.90;;;;;;4899234;29;20149;-76
2023/08/23 08:26:36;;;;;;;2.70;2.00;;;20.50;65.80;;;;;;4883541;29;20036;-77
2023/08/23 08:29:02;;;;;;;2.65;1.88;;;20.60;65.90;;;;;;4915049;29;20064;-78
2023/08/23 08:31:27;;;;;;;1.92;1.73;;;20.60;65.80;;;;;;4900111;29;20378;-76
2023/08/23 08:33:53;;;;;;;2.58;1.83;;;20.70;65.70;;;;;;4899031;29;20036;-77
2023/08/23 08:36:19;;;;;;;2.55;1.98;;;20.70;65.60;;;;;;4899487;29;20458;-77
2023/08/23 08:38:44;;;;;;;2.58;2.00;;;20.80;65.50;;;;;;4883177;29;20486;-77
2023/08/23 08:41:12;;;;;;;3.10;2.03;;;20.90;65.40;;;;;;4900257;29;20033;-78
2023/08/23 08:43:38;;;;;;;3.38;2.08;;;20.90;65.30;;;;;;4899100;29;20387;-77
2023/08/23 08:46:07;;;;;;;2.85;2.03;;;21.00;65.20;;;;;;4898661;29;20496;-77
2023/08/23 08:48:33;;;;;;;2.55;1.80;;;21.00;65.10;;;;;;4898487;29;20032;-78
2023/08/23 08:51:01;;;;;;;2.72;1.80;;;21.10;64.90;;;;;;4898858;29;20363;-78
2023/08/23 08:53:30;;;;;;;3.72;2.15;;;21.20;64.80;;;;;;4898395;29;20032;-78
2023/08/23 08:55:56;;;;;;;3.03;1.92;;;21.30;64.70;;;;;;4899944;29;20032;-78
2023/08/23 08:58:25;;;;;;;2.63;1.85;;;21.40;64.60;;;;;;4899057;29;20042;-77
2023/08/23 09:00:53;;;;;;;2.40;1.90;;;21.40;64.50;;;;;;4898506;29;20375;-78
2023/08/23 09:03:19;;;;;;;2.40;1.90;;;21.50;64.40;;;;;;4898389;29;20483;-78
2023/08/23 09:05:48;;;;;;;2.08;1.50;;;21.60;64.20;;;;;;4882604;29;20123;-78
2023/08/23 09:08:14;;;;;;;1.75;1.60;;;21.70;64.20;;;;;;4898001;29;20095;-78
2023/08/23 09:10:41;;;;;;;3.38;1.90;;;21.80;64.10;;;;;;4898536;29;20523;-77
2023/08/23 09:13:06;;;;;;;2.00;1.77;;;21.90;64.00;;;;;;4913745;29;20084;-78
2023/08/23 09:15:32;;;;;;;2.17;1.60;;;22.00;63.90;;;;;;4914773;29;20041;-77
2023/08/23 09:17:59;;;;;;;2.22;1.70;;;22.10;63.90;;;;;;4897843;29;20394;-78
2023/08/23 09:20:25;;;;;;;2.08;1.58;;;22.20;63.80;;;;;;4897972;29;20044;-78
2023/08/23 09:22:52;;;;;;;1.73;1.60;;;22.30;63.70;;;;;;4899610;29;20035;-78
2023/08/23 09:25:19;;;;;;;2.33;1.63;;;22.40;63.60;;;;;;4898159;29;20064;-79
2023/08/23 09:27:44;;;;;;;2.28;1.70;;;22.50;63.60;;;;;;4897648;29;20115;-77
2023/08/23 09:30:12;;;;;;;1.98;1.73;;;22.60;63.50;;;;;;4897719;29;20044;-79
2023/08/23 09:32:39;;;;;;;2.78;2.00;;;22.70;63.50;;;;;;4898145;29;20040;-77
2023/08/23 09:35:12;;;;;;;2.28;1.70;;;22.80;64.10;;;;;;4898778;29;20033;-78
2023/08/23 09:37:43;;;;;;;3.47;1.73;;;22.90;63.40;;;;;;4897554;29;20040;-78
2023/08/23 09:40:15;;;;;;;1.90;1.42;;;23.00;63.40;;;;;;4897982;29;20041;-78
2023/08/23 09:42:43;;;;;;;2.03;1.50;;;23.10;63.30;;;;;;4898540;29;20033;-78
2023/08/23 09:45:11;;;;;;;2.45;1.83;;;23.20;63.30;;;;;;4897848;29;20064;-78
2023/08/23 09:47:40;;;;;;;2.25;1.55;;;23.30;63.30;;;;;;4897463;29;20181;-78
2023/08/23 09:50:07;;;;;;;1.95;1.55;;;23.40;63.30;;;;;;4882433;29;20092;-79
2023/08/23 09:52:34;;;;;;;2.72;1.67;;;23.50;63.30;;;;;;4897859;29;20037;-78
2023/08/23 09:55:04;;;;;;;1.48;1.33;;;23.60;63.30;;;;;;4897491;29;20037;-78
2023/08/23 09:57:31;;;;;;;2.05;1.52;;;23.80;63.30;;;;;;4897698;29;20036;-78
2023/08/23 09:59:59;;;;;;;1.50;1.40;;;23.80;63.20;;;;;;4898687;29;20036;-78
2023/08/23 10:02:27;;;;;;;1.85;1.45;;;23.90;63.20;;;;;;4898902;29;20065;-77
2023/08/23 10:04:53;;;;;;;1.35;1.25;;;24.10;63.30;;;;;;4898027;29;20057;-78
2023/08/23 10:07:20;;;;;;;1.55;1.40;;;24.20;63.30;;;;;;4898052;29;20099;-77
2023/08/23 10:09:46;;;;;;;1.77;1.23;;;24.20;63.30;;;;;;4898040;29;20091;-78
2023/08/23 10:12:13;;;;;;;1.52;1.33;;;24.40;63.30;;;;;;4882070;29;20060;-78
2023/08/23 10:14:45;;;;;;;1.52;1.40;;;24.50;63.30;;;;;;4897627;29;20048;-78
2023/08/23 10:17:14;;;;;;;1.52;1.30;;;24.60;63.40;;;;;;4897128;29;20083;-78
2023/08/23 10:19:40;;;;;;;1.40;1.30;;;24.70;63.20;;;;;;4897371;29;20088;-79
2023/08/23 10:22:06;;;;;;;1.20;1.08;;;24.80;63.20;;;;;;4897004;29;20397;-78
2023/08/23 10:24:33;;;;;;;1.92;1.38;;;24.80;63.10;;;;;;4897383;29;20040;-78
2023/08/23 10:27:07;;;;;;;1.67;1.35;;;25.00;63.20;;;;;;4897279;29;20051;-78
2023/08/23 10:29:34;;;;;;;1.58;1.20;;;25.10;63.20;;;;;;4897236;29;20043;-78
2023/08/23 10:32:10;;;;;;;1.95;1.40;;;25.20;63.10;;;;;;4897393;29;20050;-78
2023/08/23 10:34:38;;;;;;;1.40;1.10;;;25.30;63.30;;;;;;4882240;29;20123;-78
2023/08/23 10:37:18;;;;;;;1.85;1.30;;;25.40;63.20;;;;;;4897112;29;20043;-78
2023/08/23 10:39:54;;;;;;;1.58;1.30;;;25.50;63.40;;;;;;4897072;29;20041;-78
2023/08/23 10:42:21;;;;;;;1.05;1.00;;;25.60;63.40;;;;;;4897280;29;20378;-79
2023/08/23 10:44:56;;;;;;;1.10;1.00;;;25.70;63.40;;;;;;4881599;29;20044;-77
2023/08/23 10:47:22;;;;;;;2.25;1.15;;;25.80;63.50;;;;;;4897333;29;20482;-78
2023/08/23 10:49:50;;;;;;;2.92;1.30;;;25.80;63.50;;;;;;4896721;29;20036;-77
2023/08/23 10:52:16;;;;;;;1.85;1.20;;;25.90;63.70;;;;;;4897189;29;20028;-77
2023/08/23 10:54:42;;;;;;;1.40;1.10;;;26.00;63.80;;;;;;4897628;29;20489;-78
2023/08/23 10:57:08;;;;;;;1.52;1.10;;;26.10;63.90;;;;;;4913196;29;20036;-78
2023/08/23 10:59:34;;;;;;;1.23;1.13;;;26.20;64.10;;;;;;4897986;29;20124;-77
2023/08/23 11:02:00;;;;;;;2.28;1.10;;;26.20;64.30;;;;;;4913812;29;20462;-79
2023/08/23 11:04:26;;;;;;;1.50;1.20;;;26.20;64.50;;;;;;4896502;29;20482;-79
2023/08/23 11:06:52;;;;;;;1.58;1.10;;;26.30;64.80;;;;;;4881630;29;20047;-79
2023/08/23 11:09:18;;;;;;;1.30;1.20;;;26.30;65.00;;;;;;4897910;29;20041;-77
2023/08/23 11:11:44;;;;;;;1.25;1.00;;;26.40;65.30;;;;;;4896875;29;20024;-78
2023/08/23 11:14:10;;;;;;;1.27;1.17;;;26.50;65.60;;;;;;4881784;29;20060;-78
2023/08/23 11:16:38;;;;;;;1.50;1.10;;;26.40;65.60;;;;;;4912961;29;20033;-78
2023/08/23 11:19:07;;;;;;;1.05;0.90;;;26.50;65.90;;;;;;4896857;29;20041;-78
2023/08/23 11:21:33;;;;;;;1.60;1.20;;;26.50;66.10;;;;;;4896496;29;20037;-77
2023/08/23 11:24:05;;;;;;;1.02;1.00;;;26.60;66.30;;;;;;4881402;29;20040;-78
2023/08/23 11:26:38;;;;;;;2.03;1.20;;;26.60;66.60;;;;;;4896555;29;20610;-79
2023/08/23 11:29:04;;;;;;;1.17;0.95;;;26.60;66.80;;;;;;4880970;29;20521;-79
2023/08/23 11:31:33;;;;;;;1.63;1.08;;;26.70;66.90;;;;;;4900255;29;20052;-77
2023/08/23 11:34:05;;;;;;;1.30;1.00;;;26.70;67.20;;;;;;4899812;29;20031;-79
2023/08/23 11:36:32;;;;;;;1.95;1.10;;;26.70;67.30;;;;;;4900003;29;20039;-76
2023/08/23 11:39:04;;;;;;;1.80;1.13;;;26.70;67.40;;;;;;4901366;29;20033;-78
2023/08/23 11:41:34;;;;;;;1.20;1.10;;;26.70;67.60;;;;;;4915951;29;20040;-77
2023/08/23 11:44:09;;;;;;;0.85;0.80;;;26.70;67.60;;;;;;4884624;29;20431;-78
2023/08/23 11:46:39;;;;;;;1.10;0.95;;;26.80;67.80;;;;;;4901256;29;20047;-77
2023/08/23 11:49:07;;;;;;;0.70;0.70;;;26.80;67.80;;;;;;4899534;29;20119;-77
2023/08/23 11:51:44;;;;;;;0.70;0.70;;;26.80;67.90;;;;;;4900682;29;20470;-77
2023/08/23 11:54:10;;;;;;;1.20;0.98;;;26.80;68.10;;;;;;4901275;29;20028;-76
2023/08/23 11:56:41;;;;;;;0.98;0.95;;;26.80;68.00;;;;;;4884471;29;20079;-78
2023/08/23 11:59:08;;;;;;;1.70;1.15;;;26.80;68.10;;;;;;4884094;29;20043;-76
2023/08/23 12:01:34;;;;;;;0.80;0.80;;;26.80;68.00;;;;;;4900476;29;20047;-77
2023/08/23 12:04:01;;;;;;;1.05;1.00;;;26.80;68.00;;;;;;4883676;29;20056;-78
2023/08/23 12:06:27;;;;;;;1.17;1.00;;;26.90;68.00;;;;;;4899394;29;20033;-78
2023/08/23 12:08:54;;;;;;;0.90;0.90;;;26.90;67.90;;;;;;4900142;29;20344;-78
2023/08/23 12:11:20;;;;;;;1.25;0.90;;;26.90;67.90;;;;;;4899512;29;20561;-77
2023/08/23 12:13:45;;;;;;;1.55;1.08;;;26.90;67.90;;;;;;4915389;29;20116;-78
2023/08/23 12:16:11;;;;;;;0.98;0.80;;;26.90;67.90;;;;;;4899361;29;20450;-79
2023/08/23 12:18:37;;;;;;;1.10;0.90;;;26.90;67.80;;;;;;4915125;29;20036;-79
2023/08/23 12:21:04;;;;;;;1.48;1.10;;;26.90;67.70;;;;;;4883453;29;20045;-77
2023/08/23 12:23:30;;;;;;;0.80;0.80;;;27.00;67.60;;;;;;4884005;29;20032;-81
2023/08/23 12:25:56;;;;;;;1.42;0.93;;;27.00;67.50;;;;;;4899442;29;20040;-78
2023/08/23 12:28:22;;;;;;;0.95;0.90;;;27.00;67.50;;;;;;4883274;29;20044;-78
2023/08/23 12:30:48;;;;;;;1.38;0.90;;;27.00;67.40;;;;;;4899014;29;20390;-78
2023/08/23 12:33:14;;;;;;;1.50;1.00;;;27.00;67.20;;;;;;4900509;29;20501;-78
2023/08/23 12:35:39;;;;;;;1.23;0.90;;;27.00;67.10;;;;;;4915474;29;20423;-79
2023/08/23 12:38:05;;;;;;;1.52;1.10;;;27.00;66.90;;;;;;4914503;29;20028;-78
2023/08/23 12:40:31;;;;;;;1.25;1.00;;;27.00;66.60;;;;;;4898530;29;20043;-78
2023/08/23 12:42:57;;;;;;;0.90;0.90;;;27.00;66.50;;;;;;4898859;29;20037;-78
2023/08/23 12:45:22;;;;;;;1.15;1.00;;;27.00;66.30;;;;;;4899592;29;20040;-78